createdAt,value
2018-12-19T00:00:23.827Z,-0.49
2018-12-19T00:02:53.429Z,-0.50
2018-12-19T00:05:22.576Z,-0.50
2018-12-19T00:07:51.874Z,-0.49
2018-12-19T00:10:22.297Z,-0.48
2018-12-19T00:12:51.566Z,-0.48
2018-12-19T00:15:20.829Z,-0.52
2018-12-19T00:17:50.057Z,-0.52
2018-12-19T00:20:19.267Z,-0.54
2018-12-19T00:22:48.433Z,-0.50
2018-12-19T00:25:17.550Z,-0.54
2018-12-19T00:27:46.692Z,-0.57
2018-12-19T00:30:15.846Z,-0.53
2018-12-19T00:32:44.988Z,-0.53
2018-12-19T00:35:14.162Z,-0.54
2018-12-19T00:37:43.362Z,-0.57
2018-12-19T00:40:12.938Z,-0.58
2018-12-19T00:42:42.139Z,-0.58
2018-12-19T00:45:12.546Z,-0.55
2018-12-19T00:47:41.732Z,-0.49
2018-12-19T00:50:10.871Z,-0.46
2018-12-19T00:52:40.026Z,-0.40
2018-12-19T00:55:09.235Z,-0.28
2018-12-19T00:57:41.148Z,-0.19
2018-12-19T01:00:10.724Z,-0.13
2018-12-19T01:02:39.841Z,-0.07
2018-12-19T01:05:09.086Z,-0.03
2018-12-19T01:07:38.249Z,0.03
2018-12-19T01:10:07.388Z,0.07
2018-12-19T01:12:36.579Z,0.11
2018-12-19T01:15:06.216Z,0.22
2018-12-19T01:17:35.431Z,0.30
2018-12-19T01:20:04.822Z,0.40
2018-12-19T01:22:34.240Z,0.44
2018-12-19T01:25:03.635Z,0.45
2018-12-19T01:27:32.883Z,0.47
2018-12-19T01:30:02.061Z,0.51
2018-12-19T01:32:31.610Z,0.48
2018-12-19T01:35:00.910Z,0.46
2018-12-19T01:37:30.109Z,0.47
2018-12-19T01:39:59.329Z,0.48
2018-12-19T01:42:28.502Z,0.47
2018-12-19T01:44:57.712Z,0.51
2018-12-19T01:47:26.876Z,0.55
2018-12-19T01:49:56.056Z,0.56
2018-12-19T01:52:25.190Z,0.57
2018-12-19T01:54:54.315Z,0.56
2018-12-19T01:57:23.457Z,0.57
2018-12-19T01:59:52.672Z,0.62
2018-12-19T02:02:21.847Z,0.68
2018-12-19T02:04:50.985Z,0.68
2018-12-19T02:07:20.204Z,0.72
2018-12-19T02:09:49.401Z,0.74
2018-12-19T02:12:18.534Z,0.72
2018-12-19T02:14:47.824Z,0.71
2018-12-19T02:17:16.985Z,0.71
2018-12-19T02:19:46.262Z,0.71
2018-12-19T02:22:15.386Z,0.64
2018-12-19T02:24:44.543Z,0.56
2018-12-19T02:27:13.782Z,0.51
2018-12-19T02:29:43.396Z,0.48
2018-12-19T02:32:12.565Z,0.48
2018-12-19T02:34:41.883Z,0.48
2018-12-19T02:37:11.162Z,0.44
2018-12-19T02:39:40.366Z,0.41
2018-12-19T02:42:10.088Z,0.41
2018-12-19T02:44:39.633Z,0.40
2018-12-19T02:47:08.801Z,0.38
2018-12-19T02:49:37.945Z,0.32
2018-12-19T02:52:07.137Z,0.33
2018-12-19T02:54:36.287Z,0.36
2018-12-19T02:57:05.487Z,0.38
2018-12-19T02:59:34.663Z,0.42
2018-12-19T03:02:05.567Z,0.42
2018-12-19T03:04:34.885Z,0.40
2018-12-19T03:07:04.116Z,0.41
2018-12-19T03:09:33.280Z,0.41
2018-12-19T03:12:02.440Z,0.41
2018-12-19T03:14:31.557Z,0.38
2018-12-19T03:17:00.685Z,0.36
2018-12-19T03:19:29.818Z,0.35
2018-12-19T03:21:58.952Z,0.32
2018-12-19T03:24:28.102Z,0.33
2018-12-19T03:26:57.252Z,0.41
2018-12-19T03:29:26.394Z,0.44
2018-12-19T03:31:55.522Z,0.47
2018-12-19T03:34:24.690Z,0.49
2018-12-19T03:36:53.839Z,0.54
2018-12-19T03:39:23.048Z,0.59
2018-12-19T03:41:52.192Z,0.63
2018-12-19T03:44:24.703Z,0.66
2018-12-19T03:46:53.847Z,0.63
2018-12-19T03:49:22.962Z,0.65
2018-12-19T03:51:52.157Z,0.66
2018-12-19T03:54:21.518Z,0.68
2018-12-19T03:56:51.054Z,0.68
2018-12-19T03:59:20.247Z,0.68
2018-12-19T04:01:49.417Z,0.71
2018-12-19T04:04:18.591Z,0.72
2018-12-19T04:06:47.758Z,0.75
2018-12-19T04:09:16.896Z,0.75
2018-12-19T04:11:46.031Z,0.78
2018-12-19T04:14:15.149Z,0.77
2018-12-19T04:16:44.331Z,0.78
2018-12-19T04:19:13.446Z,0.78
2018-12-19T04:21:42.608Z,0.76
2018-12-19T04:24:11.791Z,0.76
2018-12-19T04:26:41.009Z,0.75
2018-12-19T04:29:10.213Z,0.74
2018-12-19T04:31:39.353Z,0.75
2018-12-19T04:34:08.512Z,0.74
2018-12-19T04:36:37.784Z,0.75
2018-12-19T04:39:06.936Z,0.76
2018-12-19T04:41:36.073Z,0.77
2018-12-19T04:44:05.205Z,0.79
2018-12-19T04:46:34.329Z,0.82
2018-12-19T04:49:03.585Z,0.82
2018-12-19T04:51:32.691Z,0.80
2018-12-19T04:54:01.931Z,0.79
2018-12-19T04:56:31.084Z,0.80
2018-12-19T04:59:00.206Z,0.81
2018-12-19T05:01:29.397Z,0.82
2018-12-19T05:03:58.577Z,0.84
2018-12-19T05:06:27.676Z,0.84
2018-12-19T05:08:56.866Z,0.85
2018-12-19T05:11:26.032Z,0.84
2018-12-19T05:13:55.237Z,0.86
2018-12-19T05:16:24.436Z,0.87
2018-12-19T05:18:53.675Z,0.92
2018-12-19T05:21:22.871Z,0.91
2018-12-19T05:23:52.192Z,0.87
2018-12-19T05:26:24.735Z,0.85
2018-12-19T05:28:53.875Z,0.84
2018-12-19T05:31:23.124Z,0.85
2018-12-19T05:33:52.361Z,0.87
2018-12-19T05:36:21.539Z,0.88
2018-12-19T05:38:51.597Z,0.90
2018-12-19T05:41:20.798Z,0.91
2018-12-19T05:43:49.984Z,0.91
2018-12-19T05:46:19.249Z,0.94
2018-12-19T05:48:48.385Z,0.95
2018-12-19T05:51:17.638Z,0.94
2018-12-19T05:53:46.783Z,0.95
2018-12-19T05:56:15.952Z,0.98
2018-12-19T05:58:45.105Z,0.99
2018-12-19T06:01:14.300Z,0.99
2018-12-19T06:03:43.583Z,1.00
2018-12-19T06:06:12.733Z,1.02
2018-12-19T06:08:42.249Z,1.04
2018-12-19T06:11:11.381Z,1.02
2018-12-19T06:13:40.571Z,1.00
2018-12-19T06:16:09.880Z,0.97
2018-12-19T06:18:39.201Z,0.95
2018-12-19T06:21:11.288Z,0.92
2018-12-19T06:23:40.404Z,0.84
2018-12-19T06:26:09.660Z,0.76
2018-12-19T06:28:38.861Z,0.67
2018-12-19T06:31:08.035Z,0.59
2018-12-19T06:33:37.816Z,0.59
2018-12-19T06:36:06.971Z,0.56
2018-12-19T06:38:36.159Z,0.52
2018-12-19T06:41:05.487Z,0.48
2018-12-19T06:43:34.646Z,0.50
2018-12-19T06:46:03.806Z,0.49
2018-12-19T06:48:32.992Z,0.52
2018-12-19T06:51:02.155Z,0.58
2018-12-19T06:53:35.318Z,0.64
2018-12-19T06:56:04.520Z,0.66
2018-12-19T06:58:33.695Z,0.70
2018-12-19T07:01:02.824Z,0.72
2018-12-19T07:03:31.969Z,0.78
2018-12-19T07:06:01.135Z,0.79
2018-12-19T07:08:30.259Z,0.78
2018-12-19T07:10:59.586Z,0.81
2018-12-19T07:13:28.673Z,0.84
2018-12-19T07:15:57.839Z,0.82
2018-12-19T07:18:27.090Z,0.83
2018-12-19T07:20:56.358Z,0.83
2018-12-19T07:23:25.460Z,0.83
2018-12-19T07:25:54.938Z,0.88
2018-12-19T07:28:24.098Z,0.91
2018-12-19T07:30:53.263Z,0.94
2018-12-19T07:33:22.732Z,0.96
2018-12-19T07:35:51.894Z,0.99
2018-12-19T07:38:21.003Z,0.96
2018-12-19T07:40:50.159Z,0.94
2018-12-19T07:43:19.836Z,0.99
2018-12-19T07:45:54.899Z,1.02
2018-12-19T07:48:24.494Z,1.07
2018-12-19T07:50:53.671Z,1.11
2018-12-19T07:53:22.839Z,1.10
2018-12-19T07:55:52.384Z,1.09
2018-12-19T07:58:21.761Z,1.14
2018-12-19T08:00:50.881Z,1.20
2018-12-19T08:03:20.306Z,1.25
2018-12-19T08:05:49.433Z,1.30
2018-12-19T08:08:18.577Z,1.34
2018-12-19T08:10:52.152Z,1.38
2018-12-19T08:13:18.942Z,1.40
2018-12-19T08:15:48.047Z,1.37
2018-12-19T08:18:17.188Z,1.38
2018-12-19T08:20:46.354Z,1.41
2018-12-19T08:23:15.516Z,1.47
2018-12-19T08:25:44.655Z,1.53
2018-12-19T08:28:13.823Z,1.61
2018-12-19T08:30:42.971Z,1.61
2018-12-19T08:33:12.195Z,1.57
2018-12-19T08:35:41.392Z,1.64
2018-12-19T08:38:10.564Z,1.69
2018-12-19T08:40:39.755Z,1.72
2018-12-19T08:43:09.007Z,1.74
2018-12-19T08:45:38.913Z,1.75
2018-12-19T08:48:08.055Z,1.85
2018-12-19T08:50:37.206Z,1.89
2018-12-19T08:53:06.610Z,1.83
2018-12-19T08:55:35.850Z,1.82
2018-12-19T08:58:04.995Z,1.85
2018-12-19T09:00:34.174Z,1.87
2018-12-19T09:03:03.389Z,1.97
2018-12-19T09:05:32.531Z,1.99
2018-12-19T09:08:01.647Z,2.03
2018-12-19T09:10:34.233Z,2.06
2018-12-19T09:13:03.477Z,2.06
2018-12-19T09:15:38.113Z,2.07
2018-12-19T09:18:07.227Z,2.12
2018-12-19T09:20:36.383Z,2.20
2018-12-19T09:23:05.500Z,2.19
2018-12-19T09:25:34.645Z,2.15
2018-12-19T09:28:04.791Z,2.14
2018-12-19T09:30:33.896Z,2.16
2018-12-19T09:33:03.140Z,2.26
2018-12-19T09:35:32.279Z,2.37
2018-12-19T09:38:01.512Z,2.44
2018-12-19T09:40:30.603Z,2.40
2018-12-19T09:42:59.773Z,2.35
2018-12-19T09:45:31.438Z,2.38
2018-12-19T09:48:00.587Z,2.37
2018-12-19T09:50:29.690Z,2.43
2018-12-19T09:52:58.987Z,2.43
2018-12-19T09:55:28.432Z,2.47
2018-12-19T09:57:57.565Z,2.41
2018-12-19T10:00:28.007Z,2.43
2018-12-19T10:02:57.305Z,2.47
2018-12-19T10:05:26.550Z,2.49
2018-12-19T10:07:55.718Z,2.43
2018-12-19T10:10:24.841Z,2.49
2018-12-19T10:12:54.067Z,2.59
2018-12-19T10:15:23.209Z,2.57
2018-12-19T10:17:52.510Z,2.54
2018-12-19T10:20:21.796Z,2.53
2018-12-19T10:22:52.957Z,2.48
2018-12-19T10:25:22.756Z,2.51
2018-12-19T10:27:51.946Z,2.46
2018-12-19T10:30:21.120Z,2.48
2018-12-19T10:32:52.312Z,2.50
2018-12-19T10:35:21.570Z,2.54
2018-12-19T10:37:50.893Z,2.53
2018-12-19T10:40:20.087Z,2.54
2018-12-19T10:42:49.366Z,2.57
2018-12-19T10:45:18.670Z,2.56
2018-12-19T10:47:47.834Z,2.56
2018-12-19T10:50:17.081Z,2.60
2018-12-19T10:52:46.278Z,2.55
2018-12-19T10:55:18.763Z,2.52
2018-12-19T10:57:47.926Z,2.54
2018-12-19T11:00:22.684Z,2.62
2018-12-19T11:02:51.852Z,2.65
2018-12-19T11:05:21.054Z,2.68
2018-12-19T11:07:50.414Z,2.63
2018-12-19T11:10:19.881Z,2.64
2018-12-19T11:12:49.030Z,2.64
2018-12-19T11:15:18.152Z,2.67
2018-12-19T11:17:47.473Z,2.79
2018-12-19T11:20:16.779Z,2.85
2018-12-19T11:22:46.050Z,2.78
2018-12-19T11:25:15.362Z,2.75
2018-12-19T11:27:44.525Z,2.71
2018-12-19T11:30:14.256Z,2.71
2018-12-19T11:32:43.453Z,2.71
2018-12-19T11:35:12.769Z,2.75
2018-12-19T11:37:41.977Z,2.72
2018-12-19T11:40:11.180Z,2.73
2018-12-19T11:42:40.746Z,2.73
2018-12-19T11:45:10.188Z,2.66
2018-12-19T11:47:39.387Z,2.58
2018-12-19T11:50:08.792Z,2.59
2018-12-19T11:52:37.994Z,2.60
2018-12-19T11:55:07.283Z,2.52
2018-12-19T11:57:36.766Z,2.48
2018-12-19T12:00:07.807Z,2.50
2018-12-19T12:02:37.031Z,2.57
2018-12-19T12:05:06.401Z,2.66
2018-12-19T12:07:35.817Z,2.73
2018-12-19T12:10:06.657Z,2.77
2018-12-19T12:12:35.830Z,2.83
2018-12-19T12:15:05.993Z,2.78
2018-12-19T12:17:35.246Z,2.74
2018-12-19T12:20:05.717Z,2.77
2018-12-19T12:22:34.855Z,2.79
2018-12-19T12:25:05.099Z,2.80
2018-12-19T12:27:34.353Z,2.81
2018-12-19T12:30:05.120Z,2.75
2018-12-19T12:32:34.597Z,2.74
2018-12-19T12:35:04.902Z,2.76
2018-12-19T12:37:34.073Z,2.82
2018-12-19T12:40:04.572Z,2.83
2018-12-19T12:42:33.766Z,2.87
2018-12-19T12:45:03.416Z,2.95
2018-12-19T12:47:32.670Z,2.97
2018-12-19T12:50:01.822Z,2.94
2018-12-19T12:52:31.001Z,2.89
2018-12-19T12:55:00.316Z,2.78
2018-12-19T12:57:29.508Z,2.72
2018-12-19T12:59:58.661Z,2.68
2018-12-19T13:02:27.841Z,2.71
2018-12-19T13:04:57.036Z,2.71
2018-12-19T13:07:26.211Z,2.70
2018-12-19T13:09:55.438Z,2.71
2018-12-19T13:12:24.552Z,2.74
2018-12-19T13:14:53.752Z,2.76
2018-12-19T13:17:22.913Z,2.74
2018-12-19T13:19:52.070Z,2.73
2018-12-19T13:22:21.267Z,2.73
2018-12-19T13:24:50.441Z,2.69
2018-12-19T13:27:19.641Z,2.66
2018-12-19T13:29:48.789Z,2.62
2018-12-19T13:32:18.339Z,2.66
2018-12-19T13:34:47.552Z,2.65
2018-12-19T13:37:16.713Z,2.68
2018-12-19T13:39:46.057Z,2.68
2018-12-19T13:42:15.179Z,2.72
2018-12-19T13:44:44.382Z,2.71
2018-12-19T13:47:13.511Z,2.74
2018-12-19T13:49:42.699Z,2.73
2018-12-19T13:52:12.013Z,2.78
2018-12-19T13:54:41.205Z,2.78
2018-12-19T13:57:10.429Z,2.80
2018-12-19T13:59:39.973Z,2.80
2018-12-19T14:02:09.161Z,2.84
2018-12-19T14:04:38.599Z,2.82
2018-12-19T14:07:08.354Z,2.76
2018-12-19T14:09:37.802Z,2.76
2018-12-19T14:12:12.239Z,2.71
2018-12-19T14:14:38.214Z,2.72
2018-12-19T14:17:07.487Z,2.74
2018-12-19T14:19:36.615Z,2.70
2018-12-19T14:22:05.814Z,2.71
2018-12-19T14:24:35.693Z,2.72
2018-12-19T14:27:04.895Z,2.74
2018-12-19T14:29:34.090Z,2.76
2018-12-19T14:32:03.230Z,2.73
2018-12-19T14:34:32.395Z,2.73
2018-12-19T14:37:01.683Z,2.75
2018-12-19T14:39:30.827Z,2.73
2018-12-19T14:42:00.037Z,2.73
2018-12-19T14:44:29.203Z,2.75
2018-12-19T14:46:58.349Z,2.72
2018-12-19T14:49:27.496Z,2.67
2018-12-19T14:51:56.675Z,2.68
2018-12-19T14:54:25.862Z,2.72
2018-12-19T14:56:54.993Z,2.73
2018-12-19T14:59:24.167Z,2.69
2018-12-19T15:01:53.336Z,2.72
2018-12-19T15:04:22.513Z,2.76
2018-12-19T15:06:51.722Z,2.74
2018-12-19T15:09:20.986Z,2.72
2018-12-19T15:11:50.100Z,2.69
2018-12-19T15:14:19.252Z,2.70
2018-12-19T15:16:48.454Z,2.71
2018-12-19T15:19:17.674Z,2.68
2018-12-19T15:21:46.844Z,2.69
2018-12-19T15:24:16.021Z,2.68
2018-12-19T15:26:45.267Z,2.67
2018-12-19T15:29:14.426Z,2.64
2018-12-19T15:31:43.580Z,2.63
2018-12-19T15:34:12.782Z,2.59
2018-12-19T15:36:45.384Z,2.60
2018-12-19T15:39:14.535Z,2.57
2018-12-19T15:41:43.732Z,2.56
2018-12-19T15:44:12.913Z,2.56
2018-12-19T15:46:42.031Z,2.52
2018-12-19T15:49:11.276Z,2.55
2018-12-19T15:51:40.491Z,2.49
2018-12-19T15:54:09.703Z,2.50
2018-12-19T15:56:38.861Z,2.46
2018-12-19T15:59:08.008Z,2.45
2018-12-19T16:01:37.199Z,2.44
2018-12-19T16:04:06.336Z,2.43
2018-12-19T16:06:35.683Z,2.43
2018-12-19T16:09:05.926Z,2.43
2018-12-19T16:11:35.067Z,2.39
2018-12-19T16:14:04.318Z,2.39
2018-12-19T16:16:33.923Z,2.39
2018-12-19T16:19:03.267Z,2.42
2018-12-19T16:21:32.459Z,2.38
2018-12-19T16:24:01.964Z,2.35
2018-12-19T16:26:31.174Z,2.34
2018-12-19T16:29:00.383Z,2.34
2018-12-19T16:31:32.547Z,2.35
2018-12-19T16:34:01.878Z,2.36
2018-12-19T16:36:31.044Z,2.38
2018-12-19T16:39:00.233Z,2.37
2018-12-19T16:41:29.412Z,2.38
2018-12-19T16:43:58.625Z,2.39
2018-12-19T16:46:28.031Z,2.41
2018-12-19T16:48:57.218Z,2.42
2018-12-19T16:51:26.404Z,2.42
2018-12-19T16:53:55.598Z,2.41
2018-12-19T16:56:24.807Z,2.44
2018-12-19T16:58:54.259Z,2.40
2018-12-19T17:01:23.830Z,2.41
2018-12-19T17:03:53.068Z,2.41
2018-12-19T17:06:22.242Z,2.40
2018-12-19T17:08:51.404Z,2.39
2018-12-19T17:11:20.746Z,2.36
2018-12-19T17:13:49.933Z,2.37
2018-12-19T17:16:19.245Z,2.35
2018-12-19T17:18:48.426Z,2.35
2018-12-19T17:21:17.521Z,2.34
2018-12-19T17:23:46.661Z,2.33
2018-12-19T17:26:15.831Z,2.32
2018-12-19T17:28:44.998Z,2.33
2018-12-19T17:31:14.114Z,2.32
2018-12-19T17:33:43.315Z,2.32
2018-12-19T17:36:12.556Z,2.34
2018-12-19T17:38:41.743Z,2.32
2018-12-19T17:41:11.040Z,2.29
2018-12-19T17:43:40.251Z,2.28
2018-12-19T17:46:10.146Z,2.26
2018-12-19T17:48:39.341Z,2.25
2018-12-19T17:51:08.493Z,2.25
2018-12-19T17:53:37.659Z,2.26
2018-12-19T17:56:06.944Z,2.27
2018-12-19T17:58:36.149Z,2.32
2018-12-19T18:01:05.398Z,2.29
2018-12-19T18:03:34.529Z,2.31
2018-12-19T18:06:05.012Z,2.29
2018-12-19T18:08:34.142Z,2.25
2018-12-19T18:11:03.436Z,2.25
2018-12-19T18:13:32.583Z,2.26
2018-12-19T18:16:01.780Z,2.27
2018-12-19T18:21:35.924Z,2.28
2018-12-19T18:24:05.186Z,2.28
2018-12-19T18:26:34.358Z,2.25
2018-12-19T18:29:03.525Z,2.21
2018-12-19T18:31:32.782Z,2.19
2018-12-19T18:34:01.980Z,2.19
2018-12-19T18:36:31.156Z,2.21
2018-12-19T18:39:00.810Z,2.20
2018-12-19T18:41:30.048Z,2.20
2018-12-19T18:43:59.290Z,2.23
2018-12-19T18:46:28.496Z,2.25
2018-12-19T18:48:57.702Z,2.23
2018-12-19T18:51:27.006Z,2.22
2018-12-19T18:53:56.290Z,2.23
2018-12-19T18:56:25.710Z,2.22
2018-12-19T18:58:54.962Z,2.18
2018-12-19T19:01:24.394Z,2.18
2018-12-19T19:03:53.760Z,2.19
2018-12-19T19:06:23.245Z,2.19
2018-12-19T19:08:52.551Z,2.14
2018-12-19T19:11:24.925Z,2.12
2018-12-19T19:13:54.298Z,2.13
2018-12-19T19:16:23.485Z,2.15
2018-12-19T19:18:52.902Z,2.18
2018-12-19T19:21:22.191Z,2.17
2018-12-19T19:23:51.526Z,2.17
2018-12-19T19:26:20.680Z,2.15
2018-12-19T19:29:04.737Z,2.16
2018-12-19T19:31:33.968Z,2.14
2018-12-19T19:34:03.271Z,2.10
2018-12-19T19:36:32.848Z,2.11
2018-12-19T19:39:02.042Z,2.11
2018-12-19T19:41:31.305Z,2.11
2018-12-19T19:44:00.494Z,2.16
2018-12-19T19:46:29.654Z,2.15
2018-12-19T19:48:58.890Z,2.14
2018-12-19T19:51:28.081Z,2.14
2018-12-19T19:53:57.444Z,2.10
2018-12-19T19:56:26.613Z,2.12
2018-12-19T19:58:55.828Z,2.20
2018-12-19T20:01:25.144Z,2.22
2018-12-19T20:03:54.699Z,2.21
2018-12-19T20:06:23.811Z,2.17
2018-12-19T20:08:52.973Z,2.12
2018-12-19T20:11:22.101Z,2.06
2018-12-19T20:13:51.222Z,2.06
2018-12-19T20:16:20.497Z,2.08
2018-12-19T20:18:50.081Z,2.07
2018-12-19T20:21:19.218Z,2.04
2018-12-19T20:23:48.401Z,2.04
2018-12-19T20:26:17.630Z,2.04
2018-12-19T20:28:46.706Z,2.04
2018-12-19T20:31:15.872Z,2.03
2018-12-19T20:33:44.987Z,2.03
2018-12-19T20:36:14.122Z,2.03
2018-12-19T20:38:43.496Z,2.00
2018-12-19T20:41:12.635Z,2.04
2018-12-19T20:43:41.897Z,2.06
2018-12-19T20:46:11.083Z,2.09
2018-12-19T20:48:40.259Z,2.05
2018-12-19T20:51:09.441Z,2.03
2018-12-19T20:53:38.606Z,2.01
2018-12-19T20:56:07.903Z,2.00
2018-12-19T20:58:37.074Z,2.02
2018-12-19T21:01:06.204Z,2.06
2018-12-19T21:03:35.299Z,2.05
2018-12-19T21:06:04.454Z,2.01
2018-12-19T21:08:33.648Z,1.99
2018-12-19T21:11:02.920Z,1.98
2018-12-19T21:13:32.116Z,1.97
2018-12-19T21:16:01.322Z,1.96
2018-12-19T21:18:35.903Z,1.94
2018-12-19T21:21:05.036Z,1.94
2018-12-19T21:23:34.543Z,1.94
2018-12-19T21:26:03.834Z,1.96
2018-12-19T21:28:32.987Z,1.95
2018-12-19T21:31:02.129Z,1.93
2018-12-19T21:33:31.379Z,1.94
2018-12-19T21:36:00.478Z,1.95
2018-12-19T21:38:29.634Z,1.96
2018-12-19T21:40:58.824Z,1.96
2018-12-19T21:43:27.964Z,1.98
2018-12-19T21:45:57.094Z,1.98
2018-12-19T21:48:26.184Z,2.00
2018-12-19T21:50:55.311Z,2.00
2018-12-19T21:53:24.453Z,2.01
2018-12-19T21:55:53.554Z,2.02
2018-12-19T21:58:22.764Z,2.01
2018-12-19T22:00:52.005Z,2.01
2018-12-19T22:03:22.001Z,2.01
2018-12-19T22:05:51.183Z,2.01
2018-12-19T22:08:20.474Z,2.01
2018-12-19T22:10:49.687Z,1.98
2018-12-19T22:13:18.874Z,2.00
2018-12-19T22:15:48.088Z,2.01
2018-12-19T22:18:24.955Z,2.00
2018-12-19T22:20:54.286Z,2.00
2018-12-19T22:23:23.365Z,2.03
2018-12-19T22:25:52.534Z,2.03
2018-12-19T22:28:21.645Z,2.02
2018-12-19T22:30:50.760Z,2.02
2018-12-19T22:33:19.903Z,2.03
2018-12-19T22:35:49.023Z,2.02
2018-12-19T22:38:18.117Z,2.03
2018-12-19T22:40:47.291Z,2.04
2018-12-19T22:43:16.582Z,2.05
2018-12-19T22:45:45.831Z,2.07
2018-12-19T22:48:15.023Z,2.09
2018-12-19T22:50:46.879Z,2.10
2018-12-19T22:53:16.059Z,2.08
2018-12-19T22:55:45.215Z,2.09
2018-12-19T22:58:14.551Z,2.10
2018-12-19T23:00:49.592Z,2.11
2018-12-19T23:03:18.716Z,2.15
2018-12-19T23:05:50.858Z,2.15
2018-12-19T23:08:20.063Z,2.14
2018-12-19T23:10:49.311Z,2.15
2018-12-19T23:13:18.608Z,2.18
2018-12-19T23:15:47.800Z,2.19
2018-12-19T23:18:22.481Z,2.19
2018-12-19T23:20:51.664Z,2.21
2018-12-19T23:23:20.898Z,2.24
2018-12-19T23:25:50.036Z,2.26
2018-12-19T23:28:19.274Z,2.26
2018-12-19T23:30:48.407Z,2.25
2018-12-19T23:33:17.626Z,2.25
2018-12-19T23:35:46.725Z,2.25
2018-12-19T23:38:15.868Z,2.22
2018-12-19T23:40:45.025Z,2.19
2018-12-19T23:43:14.189Z,2.21
2018-12-19T23:45:43.350Z,2.20
2018-12-19T23:48:12.620Z,2.20
2018-12-19T23:50:41.772Z,2.21
2018-12-19T23:53:11.102Z,2.23
2018-12-19T23:55:40.245Z,2.26
2018-12-19T23:58:09.390Z,2.25
